createdAt,value
2022-10-07T00:01:07.216Z,4.07
2022-10-07T00:03:36.534Z,3.30
2022-10-07T00:06:08.099Z,3.33
2022-10-07T00:08:37.308Z,4.17
2022-10-07T00:11:07.999Z,3.97
2022-10-07T00:13:38.844Z,3.47
2022-10-07T00:16:08.488Z,3.30
2022-10-07T00:18:37.489Z,2.93
2022-10-07T00:21:08.754Z,4.47
2022-10-07T00:23:37.439Z,3.77
2022-10-07T00:26:06.575Z,3.07
2022-10-07T00:28:35.645Z,3.40
2022-10-07T00:31:07.452Z,2.40
2022-10-07T00:33:39.230Z,5.03
2022-10-07T00:36:16.195Z,2.80
2022-10-07T00:38:44.411Z,4.50
2022-10-07T00:41:18.516Z,5.00
2022-10-07T00:43:46.562Z,4.10
2022-10-07T00:46:22.385Z,4.03
2022-10-07T00:48:51.426Z,5.53
2022-10-07T00:51:20.878Z,2.77
2022-10-07T00:53:52.670Z,5.50
2022-10-07T00:56:20.844Z,5.27
2022-10-07T00:58:50.451Z,3.87
2022-10-07T01:01:20.106Z,3.47
2022-10-07T01:03:49.264Z,3.97
2022-10-07T01:06:17.819Z,4.23
2022-10-07T01:08:48.889Z,3.20
2022-10-07T01:11:29.544Z,3.97
2022-10-07T01:14:08.202Z,4.63
2022-10-07T01:16:44.455Z,3.00
2022-10-07T01:19:31.981Z,3.60
2022-10-07T01:22:12.674Z,4.40
2022-10-07T01:24:48.080Z,4.07
2022-10-07T01:27:19.944Z,3.10
2022-10-07T01:29:56.226Z,3.53
2022-10-07T01:32:32.120Z,4.40
2022-10-07T01:35:02.824Z,3.10
2022-10-07T01:37:36.582Z,3.50
2022-10-07T01:40:11.404Z,4.00
2022-10-07T01:42:41.470Z,3.40
2022-10-07T01:45:13.121Z,4.40
2022-10-07T01:47:42.387Z,3.20
2022-10-07T01:50:13.702Z,3.43
2022-10-07T01:53:03.093Z,3.90
2022-10-07T01:55:46.659Z,4.10
2022-10-07T01:58:30.110Z,3.57
2022-10-07T02:01:07.430Z,4.27
2022-10-07T02:03:47.865Z,3.13
2022-10-07T02:06:27.277Z,4.13
2022-10-07T02:08:57.661Z,3.90
2022-10-07T02:11:28.457Z,4.10
2022-10-07T02:14:02.698Z,3.10
2022-10-07T02:16:35.808Z,3.63
2022-10-07T02:19:08.860Z,4.33
2022-10-07T02:21:37.805Z,4.80
2022-10-07T02:24:06.962Z,3.33
2022-10-07T02:26:36.693Z,3.30
2022-10-07T02:29:10.025Z,4.50
2022-10-07T02:31:40.254Z,3.87
2022-10-07T02:34:12.560Z,4.43
2022-10-07T02:36:52.650Z,4.00
2022-10-07T02:39:21.559Z,3.93
2022-10-07T02:41:55.849Z,4.73
2022-10-07T02:44:31.839Z,3.57
2022-10-07T02:47:05.178Z,3.50
2022-10-07T02:49:38.495Z,4.80
2022-10-07T02:52:10.476Z,4.70
2022-10-07T02:54:42.773Z,3.67
2022-10-07T02:57:13.775Z,3.23
2022-10-07T02:59:45.334Z,3.70
2022-10-07T03:02:18.721Z,3.27
2022-10-07T03:04:46.717Z,3.93
2022-10-07T03:07:14.838Z,4.30
2022-10-07T03:09:43.693Z,6.27
2022-10-07T03:12:11.773Z,3.70
2022-10-07T03:14:39.611Z,3.63
2022-10-07T03:17:08.892Z,3.43
2022-10-07T03:19:37.100Z,4.67
2022-10-07T03:22:05.019Z,3.27
2022-10-07T03:24:32.899Z,4.17
2022-10-07T03:27:00.844Z,3.10
2022-10-07T03:29:32.745Z,4.23
2022-10-07T03:32:01.272Z,3.17
2022-10-07T03:34:31.819Z,9.43
2022-10-07T03:36:59.967Z,3.90
2022-10-07T03:39:28.235Z,3.70
2022-10-07T03:41:58.798Z,5.93
2022-10-07T03:44:26.895Z,3.20
2022-10-07T03:46:54.847Z,4.73
2022-10-07T03:49:23.549Z,5.70
2022-10-07T03:51:52.822Z,3.83
2022-10-07T03:54:21.224Z,2.90
2022-10-07T03:56:49.321Z,3.87
2022-10-07T03:59:17.276Z,5.83
2022-10-07T04:02:06.717Z,3.40
2022-10-07T04:04:34.648Z,4.03
2022-10-07T04:07:05.304Z,3.17
2022-10-07T04:09:33.235Z,3.03
2022-10-07T04:12:01.817Z,2.87
2022-10-07T04:14:29.714Z,4.93
2022-10-07T04:16:57.637Z,2.80
2022-10-07T04:19:25.546Z,3.53
2022-10-07T04:21:53.444Z,3.03
2022-10-07T04:24:22.744Z,3.13
2022-10-07T04:26:51.338Z,4.03
2022-10-07T04:29:19.390Z,2.93
2022-10-07T04:31:47.325Z,3.63
2022-10-07T04:34:15.302Z,4.00
2022-10-07T04:36:43.249Z,4.17
2022-10-07T04:39:11.189Z,3.73
2022-10-07T04:41:40.468Z,3.00
2022-10-07T04:44:08.327Z,3.50
2022-10-07T04:46:36.537Z,3.97
2022-10-07T04:49:05.131Z,5.90
2022-10-07T04:51:33.069Z,4.87
2022-10-07T04:54:00.960Z,5.47
2022-10-07T04:56:31.409Z,4.10
2022-10-07T04:59:00.854Z,3.43
2022-10-07T05:01:28.800Z,5.73
2022-10-07T05:03:58.120Z,4.90
2022-10-07T05:06:26.217Z,4.20
2022-10-07T05:08:54.376Z,3.27
2022-10-07T05:11:22.269Z,3.43
2022-10-07T05:13:50.391Z,5.90
2022-10-07T05:16:19.675Z,4.10
2022-10-07T05:18:47.603Z,4.97
2022-10-07T05:21:15.529Z,3.87
2022-10-07T05:23:43.404Z,3.30
2022-10-07T05:26:13.859Z,4.90
2022-10-07T05:28:44.173Z,6.17
2022-10-07T05:31:14.704Z,3.60
2022-10-07T05:33:44.249Z,4.53
2022-10-07T05:36:12.576Z,3.60
2022-10-07T05:38:40.662Z,5.37
2022-10-07T05:41:11.362Z,3.53
2022-10-07T05:43:42.341Z,4.20
2022-10-07T05:46:13.429Z,4.07
2022-10-07T05:48:46.390Z,4.87
2022-10-07T05:51:15.149Z,5.10
2022-10-07T05:53:43.259Z,4.30
2022-10-07T05:56:12.686Z,3.23
2022-10-07T05:58:40.980Z,3.40
2022-10-07T06:01:14.722Z,4.27
2022-10-07T06:03:44.749Z,4.23
2022-10-07T06:06:12.651Z,5.30
2022-10-07T06:08:40.648Z,8.03
2022-10-07T06:11:29.039Z,5.17
2022-10-07T06:13:57.139Z,5.77
2022-10-07T06:16:25.769Z,4.57
2022-10-07T06:18:55.997Z,7.30
2022-10-07T06:21:27.798Z,4.47
2022-10-07T06:23:58.047Z,4.17
2022-10-07T06:26:26.211Z,4.80
2022-10-07T06:28:54.165Z,4.00
2022-10-07T06:31:25.358Z,4.43
2022-10-07T06:33:55.192Z,4.87
2022-10-07T06:36:23.488Z,4.37
2022-10-07T06:38:52.912Z,6.33
2022-10-07T06:41:21.660Z,6.20
2022-10-07T06:43:50.070Z,5.57
2022-10-07T06:46:19.817Z,6.27
2022-10-07T06:48:48.089Z,4.57
2022-10-07T06:51:19.723Z,7.73
2022-10-07T06:53:51.565Z,13.63
2022-10-07T06:56:19.598Z,5.63
2022-10-07T06:58:48.739Z,5.78
2022-10-07T07:01:17.062Z,6.82
2022-10-07T07:03:45.076Z,6.82
2022-10-07T07:06:13.809Z,9.27
2022-10-07T07:08:44.797Z,9.13
2022-10-07T07:11:32.206Z,6.55
2022-10-07T07:14:00.671Z,7.22
2022-10-07T07:16:29.033Z,6.20
2022-10-07T07:18:59.094Z,8.23
2022-10-07T07:21:28.963Z,5.15
2022-10-07T07:23:58.991Z,5.25
2022-10-07T07:26:28.251Z,6.50
2022-10-07T07:28:58.803Z,6.05
2022-10-07T07:31:28.869Z,5.07
2022-10-07T07:33:57.173Z,5.00
2022-10-07T07:36:26.492Z,6.35
2022-10-07T07:38:55.578Z,4.65
2022-10-07T07:41:27.330Z,4.72
2022-10-07T07:43:57.449Z,3.92
2022-10-07T07:46:29.921Z,4.68
2022-10-07T07:48:58.520Z,5.20
2022-10-07T07:51:26.432Z,5.57
2022-10-07T07:53:54.397Z,8.55
2022-10-07T07:56:22.441Z,6.07
2022-10-07T07:58:51.745Z,4.60
2022-10-07T08:01:20.082Z,5.47
2022-10-07T08:03:49.929Z,4.22
2022-10-07T08:06:22.174Z,4.90
2022-10-07T08:08:51.998Z,5.57
2022-10-07T08:11:21.796Z,8.00
2022-10-07T08:13:51.637Z,4.43
2022-10-07T08:16:21.454Z,6.03
2022-10-07T08:18:51.097Z,3.63
2022-10-07T08:21:20.910Z,9.40
2022-10-07T08:23:49.596Z,4.35
2022-10-07T08:26:17.494Z,3.55
2022-10-07T08:28:46.496Z,3.33
2022-10-07T08:31:18.726Z,2.92
2022-10-07T08:33:49.392Z,6.22
2022-10-07T08:36:19.478Z,4.63
2022-10-07T08:38:47.854Z,3.38
2022-10-07T08:41:25.934Z,2.47
2022-10-07T08:43:53.890Z,1.73
2022-10-07T08:46:30.190Z,5.65
2022-10-07T08:49:01.043Z,2.28
2022-10-07T08:51:35.715Z,2.13
2022-10-07T08:54:04.108Z,1.85
2022-10-07T08:56:33.954Z,1.92
2022-10-07T08:59:21.749Z,2.00
2022-10-07T09:02:00.540Z,2.25
2022-10-07T09:04:43.843Z,1.67
2022-10-07T09:07:15.803Z,1.90
2022-10-07T09:09:47.676Z,2.65
2022-10-07T09:12:22.928Z,2.08
2022-10-07T09:14:55.022Z,2.00
2022-10-07T09:17:34.867Z,1.73
2022-10-07T09:20:07.964Z,1.63
2022-10-07T09:22:39.630Z,1.40
2022-10-07T09:25:20.806Z,2.08
2022-10-07T09:27:51.383Z,1.85
2022-10-07T09:30:20.300Z,3.47
2022-10-07T09:32:51.562Z,3.35
2022-10-07T09:35:22.047Z,2.03
2022-10-07T09:38:01.735Z,2.63
2022-10-07T09:40:35.915Z,1.88
2022-10-07T09:43:14.117Z,1.50
2022-10-07T09:45:48.004Z,1.60
2022-10-07T09:48:24.611Z,2.95
2022-10-07T09:50:52.682Z,2.47
2022-10-07T09:53:23.106Z,1.95
2022-10-07T09:55:53.245Z,1.88
2022-10-07T09:58:26.012Z,1.60
2022-10-07T10:00:55.934Z,1.27
2022-10-07T10:03:30.448Z,1.88
2022-10-07T10:06:00.738Z,2.17
2022-10-07T10:08:31.222Z,1.85
2022-10-07T10:11:01.478Z,1.30
2022-10-07T10:13:32.907Z,1.50
2022-10-07T10:16:02.180Z,4.88
2022-10-07T10:18:40.529Z,8.68
2022-10-07T10:21:22.174Z,1.73
2022-10-07T10:23:52.623Z,2.58
2022-10-07T10:26:48.473Z,1.60
2022-10-07T10:29:35.466Z,1.30
2022-10-07T10:32:28.657Z,1.30
2022-10-07T10:35:04.043Z,1.20
2022-10-07T10:37:47.256Z,2.60
2022-10-07T10:40:27.073Z,3.03
2022-10-07T10:43:08.133Z,4.43
2022-10-07T10:45:44.360Z,1.33
2022-10-07T10:48:29.171Z,1.33
2022-10-07T10:51:05.930Z,2.28
2022-10-07T10:53:48.932Z,1.20
2022-10-07T10:56:33.505Z,1.58
2022-10-07T10:59:19.156Z,1.42
2022-10-07T11:01:56.526Z,2.28
2022-10-07T11:04:46.703Z,1.50
2022-10-07T11:07:21.420Z,2.90
2022-10-07T11:09:53.303Z,1.60
2022-10-07T11:12:26.708Z,0.70
2022-10-07T11:15:02.239Z,1.27
2022-10-07T11:17:33.065Z,1.40
2022-10-07T11:20:08.456Z,1.05
2022-10-07T11:22:44.460Z,3.40
2022-10-07T11:25:25.370Z,1.67
2022-10-07T11:27:57.063Z,0.90
2022-10-07T11:30:32.101Z,1.58
2022-10-07T11:33:04.917Z,1.10
2022-10-07T11:35:35.370Z,1.25
2022-10-07T11:38:15.563Z,1.35
2022-10-07T11:40:46.787Z,0.95
2022-10-07T11:43:20.339Z,1.23
2022-10-07T11:45:54.120Z,1.13
2022-10-07T11:48:28.581Z,1.55
2022-10-07T11:51:00.876Z,1.15
2022-10-07T11:53:35.744Z,1.20
2022-10-07T11:56:07.251Z,2.30
2022-10-07T11:58:38.399Z,1.27
2022-10-07T12:01:45.846Z,1.25
2022-10-07T12:04:37.033Z,1.90
2022-10-07T12:07:36.998Z,1.20
2022-10-07T12:10:28.248Z,0.80
2022-10-07T12:13:02.499Z,1.60
2022-10-07T12:15:35.983Z,1.00
2022-10-07T12:18:33.253Z,1.48
2022-10-07T12:21:07.848Z,0.98
2022-10-07T12:23:41.470Z,1.30
2022-10-07T12:26:48.771Z,1.40
2022-10-07T12:29:49.463Z,0.90
2022-10-07T12:32:56.854Z,0.93
2022-10-07T12:35:54.202Z,1.38
2022-10-07T12:38:28.347Z,1.35
2022-10-07T12:41:19.225Z,1.42
2022-10-07T12:43:56.477Z,1.00
2022-10-07T12:46:30.412Z,0.90
2022-10-07T12:49:05.108Z,1.13
2022-10-07T12:51:39.518Z,1.00
2022-10-07T12:54:17.818Z,1.98
2022-10-07T12:56:46.362Z,2.13
2022-10-07T12:59:50.335Z,1.02
2022-10-07T13:02:57.267Z,1.15
2022-10-07T13:06:12.710Z,1.30
2022-10-07T13:09:06.043Z,0.93
2022-10-07T13:12:16.311Z,0.90
2022-10-07T13:14:54.332Z,1.42
2022-10-07T13:17:47.514Z,1.20
2022-10-07T13:20:32.330Z,0.80
2022-10-07T13:23:06.426Z,0.80
2022-10-07T13:25:34.728Z,1.08
2022-10-07T13:28:02.734Z,0.93
2022-10-07T13:30:40.365Z,0.82
2022-10-07T13:33:24.573Z,0.85
2022-10-07T13:35:53.895Z,0.80
2022-10-07T13:38:23.635Z,0.80
2022-10-07T13:40:58.037Z,1.05
2022-10-07T13:43:29.429Z,3.78
2022-10-07T13:45:58.758Z,3.53
2022-10-07T13:48:35.179Z,0.98
2022-10-07T13:51:04.815Z,2.13
2022-10-07T13:53:36.497Z,1.95
2022-10-07T13:56:09.809Z,1.73
2022-10-07T13:58:38.678Z,2.17
2022-10-07T14:01:07.603Z,0.80
2022-10-07T14:03:56.947Z,7.63
2022-10-07T14:06:53.669Z,1.27
2022-10-07T14:09:26.445Z,1.20
2022-10-07T14:11:58.047Z,1.30
2022-10-07T14:14:28.416Z,1.10
2022-10-07T14:17:00.340Z,1.00
2022-10-07T14:19:33.402Z,1.17
2022-10-07T14:22:04.475Z,1.27
2022-10-07T14:24:33.082Z,1.40
2022-10-07T14:27:01.569Z,1.17
2022-10-07T14:29:38.682Z,8.25
2022-10-07T14:32:35.142Z,1.20
2022-10-07T14:35:19.835Z,1.70
2022-10-07T14:37:48.187Z,2.40
2022-10-07T14:40:23.322Z,1.42
2022-10-07T14:42:53.881Z,1.35
2022-10-07T14:45:23.773Z,2.60
2022-10-07T14:47:51.752Z,1.58
2022-10-07T14:50:21.720Z,1.40
2022-10-07T14:52:52.242Z,1.63
2022-10-07T14:55:24.705Z,0.85
2022-10-07T14:57:53.072Z,2.55
2022-10-07T15:00:22.958Z,1.67
2022-10-07T15:02:51.457Z,1.30
2022-10-07T15:05:22.695Z,1.30
2022-10-07T15:07:51.248Z,1.27
2022-10-07T15:10:21.204Z,2.47
2022-10-07T15:12:49.385Z,1.27
2022-10-07T15:15:18.204Z,1.42
2022-10-07T15:17:46.475Z,2.75
2022-10-07T15:20:16.025Z,2.28
2022-10-07T15:22:46.174Z,1.50
2022-10-07T15:25:15.755Z,2.10
2022-10-07T15:27:43.751Z,2.47
2022-10-07T15:30:13.230Z,2.90
2022-10-07T15:32:41.270Z,2.05
2022-10-07T15:35:09.833Z,1.83
2022-10-07T15:37:37.825Z,3.42
2022-10-07T15:40:08.733Z,3.15
2022-10-07T15:42:36.679Z,3.55
2022-10-07T15:45:04.844Z,4.75
2022-10-07T15:47:34.343Z,5.93
2022-10-07T15:50:02.322Z,3.03
2022-10-07T15:52:30.313Z,5.57
2022-10-07T15:54:58.208Z,4.57
2022-10-07T15:57:27.512Z,6.63
2022-10-07T15:59:55.732Z,7.20
2022-10-07T16:02:24.902Z,6.07
2022-10-07T16:04:52.915Z,4.85
2022-10-07T16:07:21.191Z,4.05
2022-10-07T16:09:49.062Z,4.38
2022-10-07T16:12:17.289Z,3.05
2022-10-07T16:14:47.450Z,2.58
2022-10-07T16:17:15.638Z,2.25
2022-10-07T16:19:44.493Z,2.15
2022-10-07T16:22:12.438Z,2.20
2022-10-07T16:24:42.225Z,2.28
2022-10-07T16:27:10.085Z,1.88
2022-10-07T16:29:55.205Z,2.20
2022-10-07T16:32:24.511Z,2.00
2022-10-07T16:34:52.694Z,2.92
2022-10-07T16:37:20.644Z,8.02
2022-10-07T16:39:48.608Z,3.45
2022-10-07T16:42:17.901Z,2.97
2022-10-07T16:44:50.527Z,1.83
2022-10-07T16:47:18.756Z,2.30
2022-10-07T16:49:48.026Z,3.40
2022-10-07T16:52:16.049Z,14.43
2022-10-07T16:54:43.971Z,4.22
2022-10-07T16:57:11.948Z,5.47
2022-10-07T16:59:39.941Z,6.40
2022-10-07T17:02:07.893Z,2.95
2022-10-07T17:04:35.861Z,2.53
2022-10-07T17:07:05.990Z,4.40
2022-10-07T17:09:34.101Z,3.20
2022-10-07T17:12:02.133Z,2.83
2022-10-07T17:14:31.873Z,3.03
2022-10-07T17:17:00.559Z,4.40
2022-10-07T17:19:29.766Z,4.20
2022-10-07T17:21:59.258Z,6.40
2022-10-07T17:24:28.930Z,4.28
2022-10-07T17:26:57.085Z,6.82
2022-10-07T17:29:26.324Z,7.80
2022-10-07T17:31:54.965Z,7.40
2022-10-07T17:34:23.654Z,3.75
2022-10-07T17:36:51.772Z,4.07
2022-10-07T17:39:20.196Z,4.18
2022-10-07T17:41:49.731Z,6.15
2022-10-07T17:44:17.908Z,5.28
2022-10-07T17:46:46.926Z,3.97
2022-10-07T17:49:14.976Z,4.82
2022-10-07T17:51:43.994Z,4.13
2022-10-07T17:54:14.006Z,5.05
2022-10-07T17:56:42.450Z,4.05
2022-10-07T17:59:12.367Z,6.13
2022-10-07T18:01:41.260Z,5.00
2022-10-07T18:04:13.033Z,4.63
2022-10-07T18:06:42.839Z,3.83
2022-10-07T18:09:15.144Z,3.70
2022-10-07T18:12:00.367Z,4.45
2022-10-07T18:14:52.604Z,6.75
2022-10-07T18:17:21.586Z,8.70
2022-10-07T18:19:49.542Z,6.40
2022-10-07T18:22:17.478Z,6.88
2022-10-07T18:24:46.162Z,7.15
2022-10-07T18:27:14.137Z,10.60
2022-10-07T18:29:43.451Z,9.80
2022-10-07T18:32:11.409Z,8.32
2022-10-07T18:34:39.393Z,7.45
2022-10-07T18:37:08.412Z,6.95
2022-10-07T18:39:36.335Z,4.78
2022-10-07T18:42:04.516Z,6.55
2022-10-07T18:44:32.779Z,5.47
2022-10-07T18:47:02.032Z,6.22
2022-10-07T18:49:30.072Z,10.05
2022-10-07T18:51:58.061Z,4.85
2022-10-07T18:54:25.926Z,3.72
2022-10-07T18:56:54.153Z,5.03
2022-10-07T18:59:22.144Z,4.85
2022-10-07T19:01:51.110Z,4.95
2022-10-07T19:04:20.852Z,3.10
2022-10-07T19:06:49.573Z,4.40
2022-10-07T19:09:19.918Z,3.63
2022-10-07T19:11:48.222Z,4.75
2022-10-07T19:14:15.798Z,5.68
2022-10-07T19:16:45.449Z,11.48
2022-10-07T19:19:17.013Z,7.80
2022-10-07T19:21:48.388Z,14.68
2022-10-07T19:24:16.840Z,5.03
2022-10-07T19:26:46.433Z,5.47
2022-10-07T19:29:16.588Z,5.22
2022-10-07T19:31:46.095Z,5.00
2022-10-07T19:34:17.211Z,3.72
2022-10-07T19:36:47.923Z,8.02
2022-10-07T19:39:17.359Z,6.85
2022-10-07T19:41:45.575Z,5.20
2022-10-07T19:44:14.161Z,3.55
2022-10-07T19:46:42.264Z,4.45
2022-10-07T19:49:10.864Z,5.53
2022-10-07T19:51:40.383Z,5.50
2022-10-07T19:54:10.871Z,5.47
2022-10-07T19:56:40.151Z,5.63
2022-10-07T19:59:10.272Z,5.28
2022-10-07T20:01:41.395Z,6.00
2022-10-07T20:04:11.155Z,5.70
2022-10-07T20:06:39.406Z,4.32
2022-10-07T20:09:10.790Z,5.20
2022-10-07T20:11:38.758Z,3.60
2022-10-07T20:14:07.196Z,4.45
2022-10-07T20:16:37.269Z,4.72
2022-10-07T20:19:06.796Z,4.05
2022-10-07T20:21:36.694Z,3.65
2022-10-07T20:24:06.570Z,4.00
2022-10-07T20:26:37.812Z,2.80
2022-10-07T20:29:07.203Z,7.88
2022-10-07T20:31:38.605Z,3.55
2022-10-07T20:34:08.265Z,4.03
2022-10-07T20:36:38.599Z,3.38
2022-10-07T20:39:25.842Z,5.55
2022-10-07T20:42:12.557Z,4.57
2022-10-07T20:44:41.168Z,4.50
2022-10-07T20:47:10.393Z,5.20
2022-10-07T20:49:41.582Z,4.00
2022-10-07T20:52:11.709Z,3.47
2022-10-07T20:54:39.718Z,3.80
2022-10-07T20:57:08.997Z,3.08
2022-10-07T20:59:36.900Z,3.65
2022-10-07T21:02:09.493Z,6.32
2022-10-07T21:04:37.793Z,5.93
2022-10-07T21:07:05.719Z,3.75
2022-10-07T21:09:36.568Z,6.32
2022-10-07T21:12:07.260Z,3.20
2022-10-07T21:14:36.663Z,5.97
2022-10-07T21:17:05.527Z,4.07
2022-10-07T21:19:35.634Z,4.68
2022-10-07T21:22:04.012Z,3.65
2022-10-07T21:24:34.260Z,4.30
2022-10-07T21:27:02.893Z,4.00
2022-10-07T21:29:32.249Z,3.67
2022-10-07T21:32:02.051Z,2.90
2022-10-07T21:34:29.965Z,5.88
2022-10-07T21:36:58.059Z,3.58
2022-10-07T21:39:26.529Z,6.43
2022-10-07T21:41:55.050Z,4.70
2022-10-07T21:44:22.943Z,3.58
2022-10-07T21:46:50.909Z,4.13
2022-10-07T21:49:20.969Z,3.75
2022-10-07T21:51:48.838Z,2.92
2022-10-07T21:54:16.708Z,6.72
2022-10-07T21:56:46.293Z,3.10
2022-10-07T21:59:14.433Z,3.00
2022-10-07T22:01:43.217Z,3.58
2022-10-07T22:04:17.346Z,2.60
2022-10-07T22:07:04.487Z,3.42
2022-10-07T22:09:33.360Z,3.92
2022-10-07T22:12:01.254Z,3.90
2022-10-07T22:14:29.180Z,4.03
2022-10-07T22:16:57.077Z,4.72
2022-10-07T22:19:25.282Z,4.70
2022-10-07T22:21:55.277Z,2.92
2022-10-07T22:24:24.033Z,4.30
2022-10-07T22:26:52.234Z,4.07
2022-10-07T22:29:21.910Z,2.55
2022-10-07T22:31:49.909Z,3.60
2022-10-07T22:34:35.302Z,3.90
2022-10-07T22:37:06.259Z,3.70
2022-10-07T22:39:34.084Z,3.10
2022-10-07T22:42:02.341Z,2.90
2022-10-07T22:44:31.764Z,2.57
2022-10-07T22:47:00.401Z,4.27
2022-10-07T22:49:30.177Z,3.53
2022-10-07T22:51:59.774Z,2.87
2022-10-07T22:54:30.050Z,4.27
2022-10-07T22:56:57.964Z,5.17
2022-10-07T22:59:25.917Z,3.33
2022-10-07T23:01:53.814Z,5.13
2022-10-07T23:04:21.808Z,5.03
2022-10-07T23:06:49.788Z,4.60
2022-10-07T23:09:17.697Z,2.93
2022-10-07T23:11:46.925Z,2.80
2022-10-07T23:14:14.898Z,3.53
2022-10-07T23:16:44.324Z,3.70
2022-10-07T23:19:12.346Z,3.00
2022-10-07T23:21:40.263Z,2.97
2022-10-07T23:24:09.963Z,3.37
2022-10-07T23:26:38.373Z,2.40
2022-10-07T23:29:08.653Z,4.17
2022-10-07T23:31:36.893Z,2.67
2022-10-07T23:34:06.694Z,3.47
2022-10-07T23:36:35.271Z,5.07
2022-10-07T23:39:03.324Z,3.37
2022-10-07T23:41:32.121Z,4.40
2022-10-07T23:44:03.003Z,7.00
2022-10-07T23:46:35.048Z,7.47
2022-10-07T23:49:03.998Z,4.50
2022-10-07T23:51:32.524Z,4.00
2022-10-07T23:54:01.937Z,5.63
2022-10-07T23:56:30.153Z,4.30
2022-10-07T23:58:58.228Z,6.17
